Time;durP1;ratioP1;P1;durP2;ratioP2;P2;SDS_P1;SDS_P2;PMS_P1;PMS_P2;Temp;Humidity;BMP_temperature;BMP_pressure;BME280_temperature;BME280_humidity;BME280_pressure;Samples;Min_cycle;Max_cycle;Signal;HPM_P1;HPM_P2
2021/08/11 00:01:57;;;;;;;9.53;5.65;;;;;;;15.53;73.01;100367.80;2178262;80;29673;-61
2021/08/11 00:04:59;;;;;;;9.10;5.00;;;;;;;15.58;73.06;100372.37;2176304;81;27725;-60
2021/08/11 00:08:01;;;;;;;9.70;5.42;;;;;;;15.62;73.11;100370.34;2166257;82;30061;-60
2021/08/11 00:11:04;;;;;;;8.85;5.47;;;;;;;15.68;73.18;100373.95;2166235;82;32245;-60
2021/08/11 00:14:07;;;;;;;9.10;4.90;;;;;;;15.73;73.22;100379.02;2166205;82;33799;-60
2021/08/11 00:17:09;;;;;;;7.35;5.50;;;;;;;15.78;73.27;100393.08;2175713;80;29415;-60
2021/08/11 00:20:12;;;;;;;7.22;4.75;;;;;;;15.82;73.31;100391.02;2177885;81;27598;-60
2021/08/11 00:23:15;;;;;;;9.55;4.85;;;;;;;15.81;73.34;100394.22;2177804;81;29676;-61
2021/08/11 00:26:17;;;;;;;6.80;4.78;;;;;;;15.90;73.38;100400.34;2174435;81;32234;-60
2021/08/11 00:29:19;;;;;;;22.62;5.90;;;;;;;15.97;73.43;100414.78;2174130;80;34068;-60
2021/08/11 00:32:21;;;;;;;8.95;6.20;;;;;;;16.02;73.68;100409.42;2173884;81;30524;-61
2021/08/11 00:35:23;;;;;;;8.05;6.00;;;;;;;16.08;73.90;100417.11;2172561;80;27991;-60
2021/08/11 00:38:25;;;;;;;12.15;7.25;;;;;;;16.13;73.96;100420.83;2166232;82;29517;-60
2021/08/11 00:41:29;;;;;;;11.57;6.80;;;;;;;16.18;73.94;100420.48;2166477;82;27750;-60
2021/08/11 00:44:31;;;;;;;13.65;7.03;;;;;;;16.21;74.04;100430.63;2166176;82;34319;-59
2021/08/11 00:47:36;;;;;;;15.32;7.22;;;;;;;16.25;74.00;100419.09;2177053;81;30190;-60
2021/08/11 00:50:38;;;;;;;;;;;;;;;16.29;74.04;100412.97;2180486;80;27704;-59
2021/08/11 00:53:41;;;;;;;12.47;6.72;;;;;;;16.29;74.01;100405.73;2177918;81;29442;-61
2021/08/11 00:56:45;;;;;;;9.03;5.85;;;;;;;16.29;73.86;100403.50;2170278;81;32000;-60
2021/08/11 00:59:49;;;;;;;12.73;6.30;;;;;;;16.30;73.84;100410.14;2166685;82;33735;-59
2021/08/11 01:02:52;;;;;;;9.53;5.85;;;;;;;16.29;73.77;100402.16;2166926;82;29466;-61
2021/08/11 01:06:00;;;;;;;11.68;6.97;;;;;;;16.29;73.85;100397.63;2170516;81;27633;-59
2021/08/11 01:09:02;;;;;;;11.93;6.60;;;;;;;16.29;73.83;100385.93;2177708;80;29893;-59
2021/08/11 01:12:06;;;;;;;16.57;6.60;;;;;;;16.27;73.78;100379.77;2177767;81;32400;-61
2021/08/11 01:15:08;;;;;;;10.00;5.92;;;;;;;16.28;73.95;100378.33;2176760;81;33901;-59
2021/08/11 01:18:10;;;;;;;8.95;5.58;;;;;;;16.31;74.01;100379.94;2166687;81;30202;-61
2021/08/11 01:21:32;;;;;;;7.35;5.35;;;;;;;16.32;74.06;100375.75;2157804;81;27615;-59
2021/08/11 01:24:48;;;;;;;7.05;5.92;;;;;;;16.36;74.08;100379.12;2154893;81;28649;-58
2021/08/11 01:28:27;;;;;;;8.53;5.67;;;;;;;16.37;74.05;100388.95;2149201;81;31507;-59
2021/08/11 01:31:39;;;;;;;9.93;5.87;;;;;;;16.37;74.01;100380.84;2148923;81;34223;-59
2021/08/11 01:34:45;;;;;;;9.10;5.75;;;;;;;16.35;74.00;100376.88;2134467;81;29695;-61
2021/08/11 01:37:52;;;;;;;10.25;6.30;;;;;;;16.36;74.12;100374.56;2129402;83;27714;-71
2021/08/11 01:41:00;;;;;;;10.38;5.70;;;;;;;16.37;74.19;100368.18;2129522;83;28653;-74
2021/08/11 01:44:05;;;;;;;11.93;6.83;;;;;;;16.40;74.29;100366.61;2139069;82;31160;-61
2021/08/11 01:47:11;;;;;;;8.18;5.50;;;;;;;16.42;74.25;100370.54;2149253;81;33035;-61
2021/08/11 01:50:16;;;;;;;10.60;5.97;;;;;;;16.44;74.21;100365.03;2149426;82;29297;-60
2021/08/11 01:53:21;;;;;;;8.28;5.22;;;;;;;16.44;74.12;100369.09;2145341;82;27630;-61
2021/08/11 01:56:23;;;;;;;8.88;5.45;;;;;;;16.42;74.11;100377.30;2129488;83;29512;-62
2021/08/11 01:59:25;;;;;;;10.65;6.20;;;;;;;16.39;73.98;100386.51;2129828;83;31954;-62
2021/08/11 02:02:28;;;;;;;10.65;5.92;;;;;;;16.35;73.94;100386.85;2129207;83;34316;-62
2021/08/11 02:05:31;;;;;;;12.90;6.33;;;;;;;16.29;73.93;100388.64;2166055;80;30615;-61
2021/08/11 02:08:33;;;;;;;14.18;5.80;;;;;;;16.22;73.87;100383.66;2201895;80;27669;-62
2021/08/11 02:11:40;;;;;;;8.65;6.15;;;;;;;16.16;73.84;100380.07;2201452;80;28623;-61
2021/08/11 02:14:42;;;;;;;7.12;5.33;;;;;;;16.10;73.88;100379.14;2160948;80;31234;-61
2021/08/11 02:17:44;;;;;;;8.98;6.15;;;;;;;16.04;73.91;100385.02;2141327;81;32989;-60
2021/08/11 02:20:46;;;;;;;11.08;5.53;;;;;;;15.99;73.93;100382.61;2131252;83;29684;-59
2021/08/11 02:23:48;;;;;;;10.00;7.08;;;;;;;15.95;74.05;100379.77;2141788;82;27743;-61
2021/08/11 02:26:58;;;;;;;10.35;5.65;;;;;;;15.90;73.99;100381.43;2161883;82;29907;-60
2021/08/11 02:30:12;;;;;;;10.20;7.03;;;;;;;15.86;74.00;100380.41;2171021;80;32424;-59
2021/08/11 02:33:22;;;;;;;8.40;6.37;;;;;;;15.80;73.99;100377.62;2191098;80;33042;-60
2021/08/11 02:36:31;;;;;;;10.68;6.00;;;;;;;15.73;73.98;100385.30;2107756;83;29338;-60
2021/08/11 02:39:41;;;;;;;8.98;6.33;;;;;;;15.67;73.92;100382.16;2159235;82;27685;-60
2021/08/11 02:42:48;;;;;;;11.35;6.08;;;;;;;15.59;73.90;100379.50;2143900;82;29350;-60
2021/08/11 02:46:07;;;;;;;8.63;6.30;;;;;;;15.52;73.91;100386.78;2157654;81;31048;-59
2021/08/11 02:49:17;;;;;;;9.73;6.50;;;;;;;15.45;74.01;100398.03;2167329;81;34501;-61
2021/08/11 02:52:20;;;;;;;8.20;5.87;;;;;;;15.37;73.96;100389.57;2156492;81;30287;-61
2021/08/11 02:55:22;;;;;;;11.83;5.72;;;;;;;15.29;74.00;100381.15;2134080;82;27713;-61
2021/08/11 02:58:24;;;;;;;8.85;6.20;;;;;;;15.23;74.10;100382.41;2119663;84;28633;-60
2021/08/11 03:01:28;;;;;;;10.53;6.35;;;;;;;15.17;74.18;100387.74;2154629;81;31608;-59
2021/08/11 03:04:31;;;;;;;11.97;6.37;;;;;;;15.12;74.23;100383.63;2170428;80;32950;-61
2021/08/11 03:07:34;;;;;;;12.13;6.58;;;;;;;15.08;74.31;100383.45;2148064;82;30745;-58
2021/08/11 03:10:39;;;;;;;9.55;5.97;;;;;;;15.02;74.37;100382.03;2135664;82;27692;-60
2021/08/11 03:13:45;;;;;;;8.68;6.72;;;;;;;14.98;74.44;100386.78;2158332;80;30022;-60
2021/08/11 03:16:47;;;;;;;9.65;7.00;;;;;;;14.94;74.55;100389.29;2200324;80;31220;-59
2021/08/11 03:19:55;;;;;;;13.10;6.95;;;;;;;14.91;74.59;100396.23;2196454;81;33899;-61
2021/08/11 03:22:58;;;;;;;10.58;7.42;;;;;;;14.86;74.54;100401.09;2146397;81;29328;-59
2021/08/11 03:26:01;;;;;;;10.28;7.37;;;;;;;14.82;74.60;100408.99;2140737;81;28233;-60
2021/08/11 03:29:03;;;;;;;15.40;7.62;;;;;;;14.80;74.78;100409.57;2176971;81;28705;-62
2021/08/11 03:32:06;;;;;;;11.40;7.25;;;;;;;14.78;74.79;100410.16;2188724;81;32292;-62
2021/08/11 03:35:09;;;;;;;13.13;7.15;;;;;;;14.75;74.94;100411.23;2169844;80;33606;-58
2021/08/11 03:38:12;;;;;;;12.85;9.08;;;;;;;14.74;74.97;100411.69;2158921;82;29509;-60
2021/08/11 03:41:15;;;;;;;12.35;8.00;;;;;;;14.73;75.04;100411.81;2168429;81;27663;-60
2021/08/11 03:44:17;;;;;;;12.93;7.78;;;;;;;14.72;75.17;100414.13;2177636;81;30786;-60
2021/08/11 03:47:19;;;;;;;20.12;7.70;;;;;;;14.75;75.48;100412.58;2166336;81;30924;-60
2021/08/11 03:50:22;;;;;;;9.83;6.47;;;;;;;14.80;75.62;100413.16;2161838;81;33308;-61
2021/08/11 03:53:24;;;;;;;12.73;7.33;;;;;;;14.84;75.68;100416.00;2158537;82;30528;-61
2021/08/11 03:56:26;;;;;;;10.35;6.40;;;;;;;14.91;75.77;100411.56;2164553;82;28214;-61
2021/08/11 03:59:28;;;;;;;10.50;6.62;;;;;;;14.98;75.82;100412.88;2160678;82;29871;-61
2021/08/11 04:02:30;;;;;;;10.05;7.22;;;;;;;15.03;75.80;100403.53;2133274;83;31916;-60
2021/08/11 04:05:33;;;;;;;8.58;6.97;;;;;;;15.09;75.92;100413.05;2187086;81;33631;-61
2021/08/11 04:08:35;;;;;;;11.63;7.50;;;;;;;15.15;75.86;100413.96;2165321;81;29724;-62
2021/08/11 04:11:37;;;;;;;11.63;7.35;;;;;;;15.21;75.98;100414.53;2131974;82;27761;-61
2021/08/11 04:14:39;;;;;;;11.80;7.28;;;;;;;15.26;76.02;100421.84;2137692;83;29891;-61
2021/08/11 04:17:41;;;;;;;11.57;7.15;;;;;;;15.31;76.10;100429.12;2143095;82;30964;-61
2021/08/11 04:20:44;;;;;;;8.35;6.55;;;;;;;15.37;76.06;100426.52;2139192;83;33811;-61
2021/08/11 04:23:46;;;;;;;10.45;6.62;;;;;;;15.42;76.06;100431.09;2111550;83;30536;-60
2021/08/11 04:26:48;;;;;;;9.95;7.05;;;;;;;15.46;76.04;100433.51;2144703;82;27673;-60
2021/08/11 04:29:50;;;;;;;11.03;7.20;;;;;;;15.53;76.05;100429.90;2102499;83;29923;-60
2021/08/11 04:32:52;;;;;;;10.95;7.37;;;;;;;15.63;76.12;100435.53;2108149;84;31061;-60
2021/08/11 04:35:55;;;;;;;11.15;7.22;;;;;;;15.77;76.20;100443.55;2125950;80;34215;-60
2021/08/11 04:38:57;;;;;;;9.88;6.55;;;;;;;15.97;76.23;100444.50;2199166;80;30135;-61
2021/08/11 04:42:00;;;;;;;12.78;7.00;;;;;;;16.17;76.25;100449.84;2202710;80;27653;-59
2021/08/11 04:45:04;;;;;;;13.80;6.97;;;;;;;16.40;76.31;100450.43;2164569;80;28759;-60
2021/08/11 04:48:06;;;;;;;10.50;7.20;;;;;;;16.66;76.23;100445.46;2123423;83;31258;-62
2021/08/11 04:51:08;;;;;;;11.15;6.33;;;;;;;16.91;76.08;100449.94;2121935;83;32953;-61
2021/08/11 04:54:10;;;;;;;11.03;5.72;;;;;;;17.12;75.77;100442.08;2125301;82;29490;-61
2021/08/11 04:57:12;;;;;;;10.18;6.75;;;;;;;17.33;75.50;100448.22;2152681;82;27659;-61
2021/08/11 05:00:16;;;;;;;12.73;6.65;;;;;;;17.53;75.19;100446.69;2165894;82;29371;-61
2021/08/11 05:03:19;;;;;;;10.13;5.70;;;;;;;17.71;74.75;100445.73;2165980;82;31674;-61
2021/08/11 05:06:21;;;;;;;8.30;5.67;;;;;;;17.85;73.93;100452.80;2162041;81;34247;-61
2021/08/11 05:09:23;;;;;;;11.70;6.47;;;;;;;17.85;73.93;100452.80;2166120;82;30428;-60
2021/08/11 05:12:26;;;;;;;10.45;5.87;;;;;;;17.98;73.84;100453.23;2166226;82;27556;-61
2021/08/11 05:15:27;;;;;;;10.72;6.35;;;;;;;17.98;73.84;100453.23;2147180;81;29008;-61
2021/08/11 05:18:29;;;;;;;10.18;5.47;;;;;;;18.48;73.60;100457.83;2143291;81;31761;-61
2021/08/11 05:21:33;;;;;;;7.75;5.28;;;;;;;19.07;73.54;100463.96;2152273;81;34280;-61
2021/08/11 05:24:35;;;;;;;9.58;5.47;;;;;;;19.65;72.90;100459.17;2152476;82;29407;-61
2021/08/11 05:27:38;;;;;;;8.98;5.12;;;;;;;20.03;71.69;100459.08;2153315;81;27668;-61
2021/08/11 05:30:44;;;;;;;7.33;4.28;;;;;;;20.16;71.16;100459.77;2155376;82;28265;-61
2021/08/11 05:33:46;;;;;;;7.03;4.15;;;;;;;20.25;70.61;100464.02;2156167;82;31741;-61
2021/08/11 05:36:48;;;;;;;9.60;4.83;;;;;;;20.23;69.76;100466.88;2144347;82;33822;-61
2021/08/11 05:39:50;;;;;;;6.00;4.10;;;;;;;20.19;69.48;100470.34;2154272;82;30527;-60
2021/08/11 05:42:53;;;;;;;6.92;4.17;;;;;;;20.13;69.15;100480.91;2157605;82;27822;-61
2021/08/11 05:45:56;;;;;;;6.20;4.08;;;;;;;20.06;69.19;100480.58;2154410;82;28763;-61
2021/08/11 05:48:58;;;;;;;8.40;4.70;;;;;;;19.98;68.87;100479.89;2144447;83;31943;-61
2021/08/11 05:52:04;;;;;;;11.93;4.70;;;;;;;19.87;68.57;100476.73;2144944;83;33715;-61
2021/08/11 05:55:16;;;;;;;5.92;4.67;;;;;;;19.83;68.55;100477.98;2147023;82;29519;-68
2021/08/11 05:58:27;;;;;;;9.00;4.72;;;;;;;20.08;68.57;100478.59;2153546;81;27746;-68
2021/08/11 06:01:33;;;;;;;7.08;4.12;;;;;;;20.20;68.21;100480.75;2157346;82;29367;-69
2021/08/11 06:04:36;;;;;;;6.00;4.55;;;;;;;20.33;68.06;100480.53;2157360;82;31155;-67
2021/08/11 06:07:39;;;;;;;7.72;4.80;;;;;;;20.72;67.61;100481.20;2151752;81;33100;-68
2021/08/11 06:10:40;;;;;;;5.90;4.75;;;;;;;21.09;67.24;100484.71;2152587;81;29367;-67
2021/08/11 06:13:42;;;;;;;6.55;4.15;;;;;;;21.47;66.34;100491.19;2152776;82;27681;-67
2021/08/11 06:16:44;;;;;;;8.68;4.70;;;;;;;21.85;65.93;100488.14;2146132;82;29441;-68
2021/08/11 06:19:47;;;;;;;7.55;4.58;;;;;;;22.29;65.12;100483.53;2129798;83;31032;-70
2021/08/11 06:22:52;;;;;;;5.12;3.83;;;;;;;22.81;64.96;100478.11;2129490;83;33695;-68
2021/08/11 06:25:54;;;;;;;5.87;3.60;;;;;;;23.39;64.20;100479.28;2138091;82;28787;-70
2021/08/11 06:28:56;;;;;;;7.05;3.95;;;;;;;23.90;63.27;100474.95;2129495;83;27727;-69
2021/08/11 06:31:58;;;;;;;7.03;3.90;;;;;;;24.46;62.82;100480.64;2129472;83;28577;-68
2021/08/11 06:35:00;;;;;;;7.65;4.03;;;;;;;25.05;61.09;100490.34;2133992;82;31188;-69
2021/08/11 06:38:02;;;;;;;4.80;3.42;;;;;;;25.60;60.65;100496.29;2149141;81;32936;-62
2021/08/11 06:41:04;;;;;;;4.75;3.92;;;;;;;26.15;59.89;100494.76;2149106;81;28750;-61
2021/08/11 06:44:06;;;;;;;6.40;4.35;;;;;;;26.70;58.13;100488.10;2129319;83;27706;-61
2021/08/11 06:47:09;;;;;;;8.15;4.53;;;;;;;27.05;57.50;100498.82;2129484;83;28706;-62
2021/08/11 06:50:15;;;;;;;6.30;3.80;;;;;;;27.56;56.38;100502.48;2129487;83;31070;-61
2021/08/11 06:53:18;;;;;;;8.90;4.55;;;;;;;27.97;55.64;100499.91;2153323;82;32976;-61
2021/08/11 06:56:21;;;;;;;7.20;4.50;;;;;;;28.39;53.81;100507.29;2170117;82;29371;-62
2021/08/11 06:59:24;;;;;;;6.45;4.22;;;;;;;28.57;53.25;100501.39;2169102;82;27981;-63
2021/08/11 07:02:27;;;;;;;6.85;4.47;;;;;;;28.95;52.63;100502.69;2149149;81;28842;-62
2021/08/11 07:05:30;;;;;;;5.80;3.77;;;;;;;29.20;50.54;100506.52;2136197;83;31904;-62
2021/08/11 07:08:34;;;;;;;7.17;4.33;;;;;;;29.38;50.27;100504.72;2140756;83;33006;-63
2021/08/11 07:11:38;;;;;;;6.05;4.15;;;;;;;29.60;49.71;100505.58;2138380;83;29503;-62
2021/08/11 07:14:41;;;;;;;5.85;4.12;;;;;;;29.75;48.38;100506.91;2141287;82;27688;-62
2021/08/11 07:17:53;;;;;;;6.12;4.35;;;;;;;29.92;47.67;100508.02;2159831;82;28677;-62
2021/08/11 07:20:56;;;;;;;11.48;4.25;;;;;;;30.17;47.28;100502.94;2178056;80;33570;-62
2021/08/11 07:23:58;;;;;;;8.33;3.72;;;;;;;30.16;46.49;100512.28;2179509;81;33896;-62
2021/08/11 07:27:05;;;;;;;6.92;4.05;;;;;;;30.37;46.13;100506.34;2189760;81;30181;-62
2021/08/11 07:30:08;;;;;;;5.85;4.17;;;;;;;30.43;45.56;100506.93;2189542;81;27664;-62
2021/08/11 07:33:21;;;;;;;6.62;4.62;;;;;;;30.63;45.26;100515.91;2161618;81;28686;-62
2021/08/11 07:36:29;;;;;;;5.53;4.22;;;;;;;30.82;44.59;100521.22;2130202;83;31835;-63
2021/08/11 07:39:38;;;;;;;4.83;3.77;;;;;;;30.89;43.41;100516.05;2159345;82;32982;-62
2021/08/11 07:42:48;;;;;;;8.68;4.45;;;;;;;30.96;43.56;100510.55;2117211;82;29587;-62
2021/08/11 07:45:53;;;;;;;7.12;4.12;;;;;;;31.15;43.38;100517.78;2168713;82;27635;-62
2021/08/11 07:48:57;;;;;;;6.62;4.10;;;;;;;30.89;42.91;100521.58;2191380;81;28563;-62
2021/08/11 07:52:00;;;;;;;6.55;4.08;;;;;;;30.92;41.96;100519.79;2162357;80;31813;-62
2021/08/11 07:55:03;;;;;;;4.58;3.80;;;;;;;30.97;41.87;100526.08;2161548;81;33581;-63
2021/08/11 07:58:06;;;;;;;4.50;4.10;;;;;;;31.22;42.13;100525.59;2143304;82;30086;-63
2021/08/11 08:01:08;;;;;;;4.05;3.70;;;;;;;31.38;41.00;100527.12;2104627;82;27557;-62
2021/08/11 08:04:11;;;;;;;4.22;3.30;;;;;;;31.18;41.13;100529.83;2150290;82;28646;-63
2021/08/11 08:07:13;;;;;;;6.65;3.80;;;;;;;31.31;40.87;100527.09;2149961;82;32227;-63
2021/08/11 08:10:15;;;;;;;4.45;3.90;;;;;;;31.52;40.51;100533.01;2149930;82;34142;-62
2021/08/11 08:13:20;;;;;;;4.42;3.62;;;;;;;31.63;40.11;100532.09;2150960;81;30094;-62
2021/08/11 08:16:21;;;;;;;6.10;3.80;;;;;;;31.67;39.40;100530.07;2150861;82;27605;-63
2021/08/11 08:19:24;;;;;;;6.58;3.75;;;;;;;31.71;38.90;100524.15;2149117;82;29541;-63
2021/08/11 08:22:26;;;;;;;5.42;3.62;;;;;;;31.74;38.59;100527.89;2151855;82;31956;-62
2021/08/11 08:25:28;;;;;;;4.70;3.20;;;;;;;31.77;38.73;100531.63;2157925;82;34442;-62
2021/08/11 08:28:31;;;;;;;4.60;3.60;;;;;;;31.84;38.08;100529.70;2157929;82;30451;-62
2021/08/11 08:31:33;;;;;;;4.62;3.15;;;;;;;31.94;38.33;100537.05;2154193;82;27750;-62
2021/08/11 08:34:35;;;;;;;4.53;3.35;;;;;;;32.03;37.67;100527.16;2144306;83;29884;-63
2021/08/11 08:37:37;;;;;;;3.25;2.95;;;;;;;32.07;37.63;100530.66;2144267;83;31130;-62
2021/08/11 08:40:40;;;;;;;4.87;3.15;;;;;;;32.17;37.45;100526.08;2144643;83;34165;-62
2021/08/11 08:43:42;;;;;;;4.12;3.22;;;;;;;32.25;36.40;100530.55;2157708;82;30128;-62
2021/08/11 08:46:45;;;;;;;3.65;3.35;;;;;;;32.24;36.63;100536.64;2158231;82;27602;-62
2021/08/11 08:49:49;;;;;;;4.15;3.65;;;;;;;32.15;36.37;100529.59;2157905;82;29530;-61
2021/08/11 08:52:51;;;;;;;3.77;3.10;;;;;;;31.69;36.52;100506.30;2157583;82;31036;-61
2021/08/11 08:55:55;;;;;;;7.85;3.02;;;;;;;31.69;36.52;100506.30;2157814;82;34166;-62
2021/08/11 08:58:59;;;;;;;5.83;3.47;;;;;;;31.60;36.51;100534.77;2158360;82;29325;-62
2021/08/11 09:02:01;;;;;;;3.47;3.17;;;;;;;31.46;36.11;100535.77;2153666;82;27765;-62
2021/08/11 09:05:06;;;;;;;4.83;3.52;;;;;;;31.26;36.93;100524.13;2144296;83;29463;-62
2021/08/11 09:08:09;;;;;;;3.50;3.20;;;;;;;31.17;36.98;100528.98;2144679;83;31129;-62
2021/08/11 09:11:15;;;;;;;5.85;2.95;;;;;;;30.82;36.18;100527.63;2145102;82;32974;-61
2021/08/11 09:14:25;;;;;;;2.90;2.60;;;;;;;30.51;36.52;100535.81;2157861;82;30030;-62
2021/08/11 09:17:39;;;;;;;4.95;3.17;;;;;;;30.00;36.38;100529.98;2158356;82;27662;-62
2021/08/11 09:20:47;;;;;;;4.97;3.45;;;;;;;29.74;37.22;100523.66;2169120;81;29489;-62
2021/08/11 09:23:51;;;;;;;5.33;3.25;;;;;;;29.59;37.49;100533.40;2145005;82;31199;-62
2021/08/11 09:26:55;;;;;;;3.58;3.08;;;;;;;29.41;37.37;100525.03;2142556;82;33660;-62
2021/08/11 09:30:11;;;;;;;4.70;3.50;;;;;;;29.18;37.65;100531.52;2142785;82;29328;-62
2021/08/11 09:33:13;;;;;;;3.50;2.90;;;;;;;29.07;37.78;100532.02;2138760;81;27677;-60
2021/08/11 09:36:15;;;;;;;3.58;3.27;;;;;;;28.92;37.89;100522.38;2155863;81;29041;-61
2021/08/11 09:39:18;;;;;;;10.10;3.27;;;;;;;28.85;38.15;100533.86;2155596;82;32227;-62
2021/08/11 09:42:21;;;;;;;4.55;3.25;;;;;;;28.79;38.43;100532.72;2151134;82;32987;-62
2021/08/11 09:45:52;;;;;;;4.53;3.37;;;;;;;28.71;38.19;100531.39;2142372;83;30016;-61
2021/08/11 09:49:14;;;;;;;6.37;3.20;;;;;;;28.57;38.50;100526.20;2142697;82;28111;-62
2021/08/11 09:52:17;;;;;;;4.05;2.80;;;;;;;28.58;38.93;100530.67;2084324;82;28024;-62
2021/08/11 09:55:21;;;;;;;3.50;3.20;;;;;;;28.58;39.46;100532.05;2194820;81;31806;-62
2021/08/11 09:58:24;;;;;;;4.83;3.30;;;;;;;28.54;39.24;100532.95;2175356;81;33046;-61
2021/08/11 10:01:28;;;;;;;4.55;3.42;;;;;;;28.34;39.27;100530.74;2194608;81;36967;-62
2021/08/11 10:04:43;;;;;;;3.58;3.27;;;;;;;28.24;39.53;100527.41;2189782;81;27747;-61
2021/08/11 10:08:17;;;;;;;5.20;3.30;;;;;;;28.18;39.60;100531.78;2189385;81;28677;-60
2021/08/11 10:11:40;;;;;;;4.60;3.22;;;;;;;28.08;39.75;100534.42;2106877;83;32475;-62
2021/08/11 10:14:45;;;;;;;5.25;3.40;;;;;;;27.87;39.95;100533.21;2135022;82;33075;-61
2021/08/11 10:17:50;;;;;;;4.60;3.45;;;;;;;27.60;39.91;100529.98;2135053;82;29342;-61
2021/08/11 10:20:59;;;;;;;3.83;2.92;;;;;;;27.39;40.35;100547.96;2135554;82;27670;-61
2021/08/11 10:24:04;;;;;;;3.87;3.40;;;;;;;27.19;40.69;100547.56;2132002;83;28644;-62
2021/08/11 10:27:14;;;;;;;3.95;2.90;;;;;;;27.18;41.24;100550.47;2104256;83;31009;-61
2021/08/11 10:30:17;;;;;;;4.70;2.67;;;;;;;27.28;41.23;100547.00;2131575;83;32975;-60
2021/08/11 10:33:20;;;;;;;3.25;2.95;;;;;;;27.30;41.48;100552.66;2131469;83;30075;-61
2021/08/11 10:36:23;;;;;;;3.60;3.17;;;;;;;27.35;41.17;100548.52;2127164;83;27728;-61
2021/08/11 10:39:30;;;;;;;3.42;3.02;;;;;;;27.45;41.19;100546.38;2132019;83;29736;-62
2021/08/11 10:42:33;;;;;;;3.00;2.70;;;;;;;27.60;41.67;100539.08;2132651;83;31724;-61
2021/08/11 10:45:37;;;;;;;5.28;3.05;;;;;;;27.73;41.74;100542.61;2115884;83;49313;-61
2021/08/11 10:48:40;;;;;;;3.55;2.98;;;;;;;27.90;41.51;100547.45;2134516;82;30198;-61
2021/08/11 10:51:49;;;;;;;5.10;2.75;;;;;;;28.02;41.36;100552.55;2134654;82;27753;-61
2021/08/11 10:54:55;;;;;;;6.65;3.22;;;;;;;28.11;40.68;100546.48;2103853;83;28650;-61
2021/08/11 10:57:57;;;;;;;4.42;3.02;;;;;;;27.97;40.40;100552.23;2131664;83;31024;-61
2021/08/11 11:01:01;;;;;;;4.80;3.00;;;;;;;27.67;40.36;100544.71;2131414;83;34283;-62
2021/08/11 11:04:04;;;;;;;5.15;3.05;;;;;;;27.49;40.27;100540.89;2134963;82;30451;-61
2021/08/11 11:07:21;;;;;;;4.42;2.90;;;;;;;27.44;40.81;100536.41;2133762;82;28298;-61
2021/08/11 11:10:29;;;;;;;3.58;2.90;;;;;;;27.36;40.68;100549.69;2127743;83;29631;-61
2021/08/11 11:13:39;;;;;;;6.03;2.87;;;;;;;27.22;40.68;100543.59;2128676;83;31106;-61
2021/08/11 11:17:04;;;;;;;3.05;2.58;;;;;;;26.98;40.54;100542.15;2127627;83;34158;-62
2021/08/11 11:20:16;;;;;;;4.37;3.27;;;;;;;26.78;40.60;100545.81;2111692;83;30132;-61
2021/08/11 11:23:43;;;;;;;3.95;2.67;;;;;;;26.65;41.21;100548.23;2132152;82;27752;-62
2021/08/11 11:26:45;;;;;;;8.95;3.52;;;;;;;26.62;41.58;100555.47;2062588;85;28822;-61
2021/08/11 11:29:48;;;;;;;3.47;2.77;;;;;;;26.67;40.93;100550.28;2045031;86;33195;-61
2021/08/11 11:32:50;;;;;;;5.12;3.27;;;;;;;26.75;40.66;100548.03;2146749;82;33049;-62
2021/08/11 11:36:21;;;;;;;6.72;3.37;;;;;;;26.88;41.02;100550.27;2143796;83;27704;-62
2021/08/11 11:39:33;;;;;;;2.83;2.60;;;;;;;26.93;40.74;100557.47;2049430;85;27710;-61
2021/08/11 11:42:35;;;;;;;4.03;3.22;;;;;;;26.84;40.64;100547.86;2046250;85;29921;-61
2021/08/11 11:45:45;;;;;;;4.70;3.08;;;;;;;26.74;40.46;100556.81;2046456;86;31037;-61
2021/08/11 11:49:15;;;;;;;5.58;3.72;;;;;;;26.51;40.66;100554.80;2054828;85;33835;-60
2021/08/11 11:52:19;;;;;;;5.15;3.25;;;;;;;26.35;40.54;100555.69;2136353;82;29363;-60
2021/08/11 11:55:40;;;;;;;3.05;2.75;;;;;;;26.18;40.35;100545.75;2048076;86;27729;-60
2021/08/11 11:58:50;;;;;;;3.58;2.65;;;;;;;26.01;40.77;100549.84;2030706;87;29557;-61
2021/08/11 12:01:52;;;;;;;4.90;3.02;;;;;;;25.96;41.00;100547.28;2046398;86;30805;-61
2021/08/11 12:05:03;;;;;;;3.62;2.75;;;;;;;25.97;41.00;100546.25;2082131;85;33822;-62
2021/08/11 12:08:13;;;;;;;3.90;2.30;;;;;;;25.95;40.83;100540.91;2062863;85;30170;-61
2021/08/11 12:11:15;;;;;;;3.25;2.47;;;;;;;25.96;40.30;100537.67;2145571;82;27688;-62
2021/08/11 12:14:24;;;;;;;3.62;2.20;;;;;;;25.85;39.80;100539.70;2144190;82;29505;-61
2021/08/11 12:17:32;;;;;;;4.10;2.65;;;;;;;25.76;39.65;100544.33;2139889;83;32261;-60
2021/08/11 12:20:36;;;;;;;3.02;2.55;;;;;;;25.63;39.52;100529.76;2128930;83;33836;-61
2021/08/11 12:23:38;;;;;;;4.05;2.52;;;;;;;25.60;40.76;100534.20;2128924;83;29374;-61
2021/08/11 12:26:40;;;;;;;7.47;2.80;;;;;;;25.67;40.79;100520.66;2128418;83;27630;-61
2021/08/11 12:29:55;;;;;;;4.58;2.67;;;;;;;25.69;40.41;100539.69;2128346;83;29516;-62
2021/08/11 12:32:59;;;;;;;4.95;2.60;;;;;;;25.70;40.34;100544.16;2127635;83;31586;-61
2021/08/11 12:36:01;;;;;;;2.70;2.20;;;;;;;25.65;40.15;100533.69;2128237;83;32054;-60
2021/08/11 12:39:12;;;;;;;3.70;2.65;;;;;;;25.65;40.09;100529.58;2128544;83;28784;-61
2021/08/11 12:42:14;;;;;;;2.67;2.30;;;;;;;25.61;40.47;100531.81;2128684;82;27741;-61
2021/08/11 12:45:16;;;;;;;2.83;2.52;;;;;;;25.62;40.41;100524.42;2128357;83;29925;-61
2021/08/11 12:48:30;;;;;;;3.27;2.08;;;;;;;25.57;40.45;100527.68;2128607;83;32006;-61
2021/08/11 12:51:34;;;;;;;2.42;2.20;;;;;;;25.54;39.92;100525.27;2128390;83;34186;-61
2021/08/11 12:55:04;;;;;;;6.50;1.97;;;;;;;25.44;39.58;100526.79;2129017;83;29533;-62
2021/08/11 12:58:06;;;;;;;6.25;2.52;;;;;;;25.40;39.61;100536.34;2128601;83;27749;-62
2021/08/11 13:01:08;;;;;;;3.35;2.45;;;;;;;25.38;40.26;100538.91;2128619;83;29924;-62
2021/08/11 13:04:24;;;;;;;2.62;2.10;;;;;;;25.38;40.21;100523.34;2129188;82;31844;-65
2021/08/11 13:07:25;;;;;;;6.50;2.47;;;;;;;25.41;40.62;100527.09;2134262;82;34332;-66
2021/08/11 13:10:31;;;;;;;3.60;2.30;;;;;;;25.44;40.72;100527.31;2160367;82;30259;-66
2021/08/11 13:13:33;;;;;;;2.95;2.60;;;;;;;25.40;40.32;100532.23;2135291;82;27969;-68
2021/08/11 13:16:34;;;;;;;3.30;2.50;;;;;;;25.43;40.75;100529.72;2122895;83;29473;-65
2021/08/11 13:19:36;;;;;;;3.60;2.20;;;;;;;25.45;40.66;100527.66;2122644;82;32007;-67
2021/08/11 13:22:40;;;;;;;3.10;2.05;;;;;;;25.51;40.53;100529.72;2131542;83;33768;-68
2021/08/11 13:25:44;;;;;;;3.90;2.77;;;;;;;25.53;39.98;100522.17;2104799;83;29337;-68
2021/08/11 13:28:46;;;;;;;4.17;2.27;;;;;;;25.53;39.76;100522.17;2097441;82;27701;-67
2021/08/11 13:31:48;;;;;;;3.22;2.42;;;;;;;25.55;40.25;100522.03;2095528;84;28786;-62
2021/08/11 13:34:50;;;;;;;2.92;2.02;;;;;;;25.57;39.95;100525.43;2096003;84;31191;-61
2021/08/11 13:37:52;;;;;;;2.92;2.40;;;;;;;25.56;40.14;100533.34;2116696;82;34052;-63
2021/08/11 13:40:54;;;;;;;4.05;2.20;;;;;;;25.56;39.79;100525.96;2122658;83;30639;-62
2021/08/11 13:43:56;;;;;;;2.72;2.15;;;;;;;25.62;40.17;100529.41;2122828;83;27769;-62
2021/08/11 13:46:58;;;;;;;2.62;1.87;;;;;;;25.74;39.76;100534.56;2122728;83;29129;-63
2021/08/11 13:50:00;;;;;;;3.67;2.42;;;;;;;25.76;39.55;100531.14;2151838;82;31133;-62
2021/08/11 13:53:02;;;;;;;3.83;2.65;;;;;;;25.71;39.33;100530.78;2133127;82;34211;-63
2021/08/11 13:56:08;;;;;;;3.37;2.40;;;;;;;25.69;39.57;100528.71;2131756;83;29393;-62
2021/08/11 13:59:09;;;;;;;4.17;2.55;;;;;;;25.69;39.56;100532.83;2142668;82;27709;-63
2021/08/11 14:02:11;;;;;;;5.12;2.50;;;;;;;25.71;39.70;100545.37;2051447;86;29683;-62
2021/08/11 14:05:13;;;;;;;2.90;2.45;;;;;;;25.70;39.51;100540.91;2091045;84;31049;-62
2021/08/11 14:08:15;;;;;;;4.42;3.27;;;;;;;25.66;39.39;100536.78;2046506;86;33408;-62
2021/08/11 14:11:18;;;;;;;4.60;2.62;;;;;;;25.65;39.64;100536.97;2027551;86;30540;-62
2021/08/11 14:14:20;;;;;;;2.90;2.45;;;;;;;25.61;39.52;100530.44;2109481;84;27718;-62
2021/08/11 14:17:21;;;;;;;3.22;2.47;;;;;;;25.60;39.74;100529.22;2116903;83;30076;-62
2021/08/11 14:20:24;;;;;;;2.85;2.33;;;;;;;25.59;40.05;100527.00;2084529;84;32176;-63